Amagasaki, Japan
Current Conditions -  °F | °C
As of 2:00 PM on Saturday 29 Nov 2014 (Local Time) from RJOO Reporting Station
Broken Clouds Broken Clouds  
Wind Chill: 64°   Ceiling: 6000
Heat Index: 64°   Visibility: 6mi
Dew Point: 52°   Wind: 14mph
Humidity: 64%   Direction: 330°NNW
Pressure: 29.97"   Gusts: NA
Location:  34.71°N, 135.41°E
Report Text: RJOO 290500Z 33012KT 9999 FEW015 BKN060 18/11 Q1015
Loading
Personal Weather Stations






























Interactive Weather Map New forecast layout! Learn more

10-Day Weather Forecast

Advertisements
Track Severe Weather on mobile